Terminal Aerodrome Forecast
Issued by NWS

Home | Current Version | Previous Version | Text Only | Print | Product List | Glossary On
Versions: 1 2 3 4 5 6 7 8 9 10 11 12 13 14 15 16 17 18 19 20 21 22 23 24 25 26 27 28 29 30 31 32 33 34
841
FTUS45 KGJT 251134 AAA
TAFMTJ
TAF AMD
KMTJ 251134Z 2512/2612 17006KT P6SM FEW200
     FM251800 VRB03KT P6SM VCSH BKN120
     FM260000 27006KT P6SM BKN070
     FM260200 20004KT P6SM OVC060
     FM260600 17004KT P6SM VCSH OVC060=

USA.gov is the U.S. government's official web portal to all federal, state and local government web resources and services.